Time;durP1;ratioP1;P1;durP2;ratioP2;P2;SDS_P1;SDS_P2;PMS_P1;PMS_P2;Temp;Humidity;BMP_temperature;BMP_pressure;BME280_temperature;BME280_humidity;BME280_pressure;Samples;Min_cycle;Max_cycle;Signal;HPM_P1;HPM_P2
2021/06/20 00:01:57;;;;;;;19.95;8.60;;;;;;;18.66;91.28;98672.50;5012736;28;20034;-62
2021/06/20 00:04:22;;;;;;;29.40;9.68;;;;;;;18.76;91.68;98704.84;5013511;28;20018;-62
2021/06/20 00:06:49;;;;;;;25.27;10.85;;;;;;;18.81;92.18;98652.34;5012728;28;20040;-62
2021/06/20 00:09:14;;;;;;;33.47;10.88;;;;;;;18.93;92.41;98690.59;5012018;28;20054;-62
2021/06/20 00:11:41;;;;;;;26.08;9.10;;;;;;;18.94;92.09;98694.91;5012768;28;20512;-62
2021/06/20 00:14:07;;;;;;;18.60;8.80;;;;;;;18.88;91.56;98666.28;5013080;28;20021;-62
2021/06/20 00:16:33;;;;;;;24.80;8.73;;;;;;;18.65;92.49;98644.56;5012990;28;20034;-64
2021/06/20 00:18:58;;;;;;;21.55;8.57;;;;;;;18.71;92.67;98632.47;5013298;28;20479;-62
2021/06/20 00:21:24;;;;;;;18.35;7.82;;;;;;;18.57;93.02;98631.75;5012888;28;20038;-62
2021/06/20 00:23:49;;;;;;;17.85;8.77;;;;;;;18.64;93.52;98626.66;5013196;28;20053;-62
2021/06/20 00:26:15;;;;;;;22.95;9.77;;;;;;;18.79;93.12;98627.44;5013485;28;20038;-62
2021/06/20 00:28:40;;;;;;;20.10;9.20;;;;;;;18.85;92.61;98626.19;5017142;28;20029;-61
2021/06/20 00:31:06;;;;;;;21.75;9.85;;;;;;;19.01;93.36;98629.28;5016466;28;20499;-61
2021/06/20 00:33:31;;;;;;;21.25;8.93;;;;;;;18.97;93.02;98623.69;5016817;28;20381;-61
2021/06/20 00:35:58;;;;;;;20.45;8.52;;;;;;;18.95;92.79;98634.88;5016413;28;20045;-61
2021/06/20 00:38:23;;;;;;;22.27;8.60;;;;;;;18.84;92.09;98625.38;5016650;28;20431;-61
2021/06/20 00:40:49;;;;;;;20.42;8.02;;;;;;;18.81;92.69;98617.06;5016462;28;20053;-62
2021/06/20 00:43:14;;;;;;;21.88;8.00;;;;;;;18.73;92.25;98619.38;5016776;28;20403;-62
2021/06/20 00:45:40;;;;;;;20.05;8.23;;;;;;;18.69;92.37;98612.97;5016228;28;20034;-62
2021/06/20 00:48:05;;;;;;;16.45;8.50;;;;;;;18.64;93.12;98634.81;5016881;28;20113;-62
2021/06/20 00:50:31;;;;;;;26.02;9.57;;;;;;;18.58;93.27;98714.75;5014963;28;20038;-63
2021/06/20 00:52:58;;;;;;;25.60;9.43;;;;;;;18.46;94.15;98684.66;5016462;28;20037;-62
2021/06/20 00:55:26;;;;;;;23.77;8.50;;;;;;;18.50;93.86;98631.38;5016094;28;20037;-63
2021/06/20 00:57:52;;;;;;;21.85;9.15;;;;;;;18.54;93.51;98606.00;5016436;28;20022;-63
2021/06/20 01:00:17;;;;;;;19.25;9.27;;;;;;;18.61;93.49;98621.88;5015784;28;20040;-62
2021/06/20 01:02:45;;;;;;;23.60;9.32;;;;;;;18.59;92.60;98640.38;5013238;28;20033;-62
2021/06/20 01:05:11;;;;;;;22.85;8.15;;;;;;;18.68;91.93;98660.22;5016087;28;20032;-62
2021/06/20 01:07:36;;;;;;;28.88;8.80;;;;;;;18.72;91.34;98655.78;5016402;28;20117;-62
2021/06/20 01:10:03;;;;;;;32.17;9.00;;;;;;;18.72;90.86;98650.38;5015874;28;20069;-62
2021/06/20 01:12:29;;;;;;;26.48;7.63;;;;;;;18.79;90.86;98658.09;5016140;28;20026;-62
2021/06/20 01:14:54;;;;;;;30.40;7.20;;;;;;;18.82;89.42;98643.91;5015959;28;20483;-62
2021/06/20 01:17:22;;;;;;;27.17;7.82;;;;;;;18.81;90.21;98620.56;5015662;28;20472;-63
2021/06/20 01:19:48;;;;;;;24.00;7.32;;;;;;;18.72;90.77;98638.69;5016218;28;20467;-62
2021/06/20 01:22:23;;;;;;;24.30;8.10;;;;;;;18.69;90.75;98629.25;5014291;28;20125;-62
2021/06/20 01:24:53;;;;;;;25.35;7.57;;;;;;;18.71;90.85;98621.59;5015964;28;20030;-62
2021/06/20 01:27:19;;;;;;;28.42;9.40;;;;;;;18.69;91.22;98623.03;5014195;28;20050;-62
2021/06/20 01:29:47;;;;;;;31.55;9.80;;;;;;;18.69;91.94;98612.97;5015726;28;20026;-62
2021/06/20 01:32:13;;;;;;;24.70;9.15;;;;;;;18.71;91.97;98620.81;5015360;28;20116;-61
2021/06/20 01:34:38;;;;;;;27.42;9.50;;;;;;;18.72;92.06;98611.53;5015743;28;20030;-62
2021/06/20 01:37:08;;;;;;;21.90;9.27;;;;;;;18.75;92.11;98617.19;5014544;28;20415;-61
2021/06/20 01:39:33;;;;;;;29.38;9.93;;;;;;;18.76;92.16;98634.28;5015617;28;20030;-61
2021/06/20 01:41:59;;;;;;;28.52;9.90;;;;;;;18.81;91.66;98645.00;5013828;28;20473;-62
2021/06/20 01:44:24;;;;;;;29.67;9.20;;;;;;;18.84;91.57;98630.00;5014268;28;20026;-62
2021/06/20 01:46:50;;;;;;;25.85;9.02;;;;;;;18.91;91.63;98638.50;5015117;28;20037;-62
2021/06/20 01:49:15;;;;;;;34.70;9.27;;;;;;;18.93;90.63;98633.56;5015356;28;20455;-62
2021/06/20 01:51:44;;;;;;;26.95;9.48;;;;;;;18.94;91.01;98632.44;5015026;28;20042;-62
2021/06/20 01:54:09;;;;;;;20.55;8.07;;;;;;;18.99;90.41;98626.09;5015275;28;20083;-61
2021/06/20 01:56:35;;;;;;;21.55;8.27;;;;;;;19.01;90.41;98624.66;5014918;28;20034;-62
2021/06/20 01:59:00;;;;;;;25.83;9.40;;;;;;;19.01;90.82;98623.88;5014922;28;20376;-62
2021/06/20 02:01:25;;;;;;;27.30;9.35;;;;;;;19.05;90.23;98620.22;5014821;28;20049;-62
2021/06/20 02:03:51;;;;;;;23.40;8.18;;;;;;;19.00;90.72;98604.06;5015046;28;20022;-62
2021/06/20 02:06:17;;;;;;;23.83;9.00;;;;;;;18.98;90.80;98606.28;5014802;28;20034;-61
2021/06/20 02:08:42;;;;;;;26.40;9.27;;;;;;;19.00;91.00;98597.84;5015051;28;20469;-62
2021/06/20 02:11:09;;;;;;;25.02;8.93;;;;;;;19.04;90.61;98601.50;5014483;28;20026;-61
2021/06/20 02:13:35;;;;;;;27.38;8.68;;;;;;;19.06;90.38;98600.06;5014840;28;20460;-61
2021/06/20 02:16:01;;;;;;;22.27;8.77;;;;;;;19.05;89.93;98603.91;4991994;28;20041;-61
2021/06/20 02:18:26;;;;;;;22.15;8.82;;;;;;;19.11;90.68;98604.56;4995130;28;20026;-61
2021/06/20 02:20:52;;;;;;;20.15;8.85;;;;;;;19.08;89.71;98614.16;4994789;28;20033;-62
2021/06/20 02:23:17;;;;;;;18.73;8.20;;;;;;;19.18;89.36;98629.38;4995146;28;20026;-61
2021/06/20 02:25:43;;;;;;;23.60;9.38;;;;;;;19.17;89.34;98661.19;4993435;28;20038;-61
2021/06/20 02:28:08;;;;;;;23.88;9.30;;;;;;;19.11;89.71;98667.03;4995243;28;20072;-62
2021/06/20 02:30:34;;;;;;;27.10;8.88;;;;;;;19.03;90.31;98675.97;4994660;28;20520;-62
2021/06/20 02:32:59;;;;;;;27.88;9.95;;;;;;;18.99;90.38;98681.19;4995037;28;20481;-61
2021/06/20 02:35:25;;;;;;;18.83;8.63;;;;;;;18.91;90.89;98690.91;4994407;28;20035;-62
2021/06/20 02:37:51;;;;;;;29.50;10.73;;;;;;;18.92;90.87;98705.28;4993730;28;20022;-62
2021/06/20 02:40:16;;;;;;;23.17;8.93;;;;;;;18.83;91.65;98701.72;4994373;28;20026;-62
2021/06/20 02:42:43;;;;;;;20.70;8.98;;;;;;;18.79;91.81;98698.00;4995137;28;20129;-61
2021/06/20 02:45:10;;;;;;;24.50;9.95;;;;;;;18.71;92.13;98703.03;4993377;28;20019;-61
2021/06/20 02:47:36;;;;;;;25.05;10.63;;;;;;;18.67;92.42;98701.25;4993443;28;20029;-61
2021/06/20 02:50:02;;;;;;;26.02;10.68;;;;;;;18.56;92.65;98705.31;4993319;28;20030;-61
2021/06/20 02:52:28;;;;;;;22.77;9.77;;;;;;;18.58;92.69;98711.25;4994540;28;20022;-61
2021/06/20 02:54:53;;;;;;;22.13;9.75;;;;;;;18.53;92.77;98704.03;4994332;28;20088;-61
2021/06/20 02:57:22;;;;;;;29.27;10.10;;;;;;;18.58;92.52;98703.91;5005108;28;20034;-61
2021/06/20 02:59:48;;;;;;;23.73;9.10;;;;;;;18.65;92.18;98698.06;5013822;28;20097;-61
2021/06/20 03:02:14;;;;;;;26.02;9.30;;;;;;;18.68;91.73;98698.22;5013596;28;20037;-61
2021/06/20 03:04:39;;;;;;;24.02;9.57;;;;;;;18.70;91.37;98704.16;5012729;28;20432;-62
2021/06/20 03:07:05;;;;;;;24.90;9.10;;;;;;;18.66;91.84;98711.31;5013506;28;20038;-61
2021/06/20 03:09:30;;;;;;;32.25;9.05;;;;;;;18.68;91.61;98714.50;5012592;28;20041;-62
2021/06/20 03:11:56;;;;;;;28.30;8.95;;;;;;;18.70;90.96;98723.16;5013467;28;20038;-61
2021/06/20 03:14:21;;;;;;;26.60;8.85;;;;;;;18.75;90.35;98720.34;5013885;28;20033;-61
2021/06/20 03:16:47;;;;;;;30.10;8.52;;;;;;;18.70;90.14;98716.94;5013366;28;20512;-61
2021/06/20 03:19:12;;;;;;;31.00;7.90;;;;;;;18.67;89.78;98715.63;5013675;28;20018;-62
2021/06/20 03:21:38;;;;;;;22.40;8.82;;;;;;;18.68;89.64;98722.66;4995726;28;20076;-61
2021/06/20 03:24:04;;;;;;;23.67;8.30;;;;;;;18.70;89.57;98727.78;5013553;28;20026;-62
2021/06/20 03:26:29;;;;;;;26.45;8.77;;;;;;;18.69;89.41;98735.09;5013228;28;20034;-61
2021/06/20 03:28:55;;;;;;;26.08;8.40;;;;;;;18.62;89.73;98733.94;5013721;28;20030;-62
2021/06/20 03:31:21;;;;;;;19.20;8.32;;;;;;;18.61;89.25;98754.84;5013213;28;20109;-61
2021/06/20 03:33:46;;;;;;;35.50;9.63;;;;;;;18.62;89.02;98759.19;5013425;28;20022;-62
2021/06/20 03:36:12;;;;;;;18.73;8.18;;;;;;;18.59;89.80;98757.06;5013166;28;20100;-62
2021/06/20 03:38:38;;;;;;;25.80;8.73;;;;;;;18.57;89.54;98762.00;5013416;28;20079;-62
2021/06/20 03:41:03;;;;;;;21.92;7.93;;;;;;;18.54;89.29;98762.59;5013191;28;20045;-62
2021/06/20 03:43:29;;;;;;;17.85;8.02;;;;;;;18.59;88.81;98765.19;5013370;28;20026;-62
2021/06/20 03:45:54;;;;;;;33.95;8.10;;;;;;;18.59;88.66;98762.50;5012752;28;20045;-62
2021/06/20 03:48:19;;;;;;;22.17;8.50;;;;;;;18.59;88.38;98765.19;5013249;28;20553;-62
2021/06/20 03:50:45;;;;;;;23.70;7.20;;;;;;;18.53;88.47;98771.88;5012841;28;20038;-62
2021/06/20 03:53:11;;;;;;;19.30;8.43;;;;;;;18.51;88.27;98768.66;5013142;28;20030;-62
2021/06/20 03:55:38;;;;;;;23.67;8.20;;;;;;;18.48;88.45;98780.91;5012939;28;20049;-62
2021/06/20 03:58:06;;;;;;;26.27;8.63;;;;;;;18.45;88.49;98783.44;5013372;28;20108;-61
2021/06/20 04:00:33;;;;;;;18.58;8.00;;;;;;;18.47;88.02;98783.94;5012395;28;20054;-62
2021/06/20 04:02:59;;;;;;;21.88;7.93;;;;;;;18.50;87.70;98783.34;5013303;28;20049;-62
2021/06/20 04:05:24;;;;;;;20.77;8.07;;;;;;;18.41;88.06;98791.38;5011668;28;20125;-62
2021/06/20 04:07:49;;;;;;;18.10;8.27;;;;;;;18.41;88.01;98804.16;5011746;28;20022;-62
2021/06/20 04:10:15;;;;;;;19.50;7.95;;;;;;;18.40;88.02;98803.34;5012757;28;20088;-62
2021/06/20 04:12:40;;;;;;;21.73;8.25;;;;;;;18.30;88.13;98812.50;5013033;28;20029;-62
2021/06/20 04:15:07;;;;;;;17.73;8.35;;;;;;;18.69;87.05;98805.69;5012628;28;20069;-62
2021/06/20 04:17:34;;;;;;;16.90;7.35;;;;;;;18.77;86.37;98806.09;5013001;28;20057;-62
2021/06/20 04:20:00;;;;;;;17.27;6.90;;;;;;;18.95;85.45;98807.84;5011838;28;20034;-62
2021/06/20 04:22:25;;;;;;;18.52;6.88;;;;;;;19.57;82.40;98810.66;5011380;28;20041;-61
2021/06/20 04:24:51;;;;;;;18.38;6.38;;;;;;;21.28;74.01;98805.38;5013191;28;20030;-62
2021/06/20 04:27:16;;;;;;;17.70;5.40;;;;;;;22.44;69.54;98815.25;5012510;28;20036;-62
2021/06/20 04:29:42;;;;;;;12.60;5.13;;;;;;;22.89;67.20;98800.94;5013057;28;20049;-62
2021/06/20 04:32:07;;;;;;;17.92;5.15;;;;;;;23.66;63.49;98811.44;5012486;28;20041;-62
2021/06/20 04:34:33;;;;;;;15.85;4.63;;;;;;;23.82;62.98;98823.38;5012863;28;20041;-62
2021/06/20 04:36:58;;;;;;;18.00;4.38;;;;;;;24.60;60.75;98828.97;5011304;28;20045;-62
2021/06/20 04:39:23;;;;;;;18.67;4.63;;;;;;;24.17;61.82;98831.16;5011575;28;20548;-62
2021/06/20 04:41:50;;;;;;;16.40;4.50;;;;;;;23.77;61.88;98828.28;5012361;28;20085;-62
2021/06/20 04:46:59;;;;;;;12.27;4.18;;;;;;;24.84;57.57;98826.19;5012357;28;20499;-62
2021/06/20 04:49:24;;;;;;;13.93;3.60;;;;;;;25.33;55.08;98831.47;5012703;28;20026;-62
2021/06/20 04:51:50;;;;;;;7.20;3.30;;;;;;;24.94;55.46;98830.38;5011958;28;20030;-62
2021/06/20 04:54:15;;;;;;;8.20;3.50;;;;;;;25.35;54.17;98831.13;5012825;28;20026;-62
2021/06/20 04:56:41;;;;;;;10.63;3.55;;;;;;;25.71;53.33;98827.41;5012208;28;20045;-62
2021/06/20 04:59:07;;;;;;;13.88;3.58;;;;;;;26.88;50.20;98834.09;5012446;28;20026;-62
2021/06/20 05:01:33;;;;;;;16.98;3.47;;;;;;;26.89;50.50;98832.94;5012274;28;20042;-63
2021/06/20 05:03:58;;;;;;;11.60;3.28;;;;;;;26.60;50.50;98836.22;5012512;28;20096;-63
2021/06/20 05:06:23;;;;;;;8.88;3.05;;;;;;;26.15;50.95;98843.00;5012280;28;20404;-62
2021/06/20 05:08:49;;;;;;;9.90;3.60;;;;;;;25.78;53.30;98840.50;5012418;28;20410;-62
2021/06/20 05:11:14;;;;;;;13.30;3.95;;;;;;;25.63;52.45;98844.03;5012295;28;20038;-63
2021/06/20 05:13:40;;;;;;;14.38;3.60;;;;;;;26.10;52.14;98840.53;5015232;28;20052;-62
2021/06/20 05:16:06;;;;;;;15.70;3.60;;;;;;;26.08;51.85;98827.16;5014382;28;20038;-63
2021/06/20 05:18:31;;;;;;;8.38;3.30;;;;;;;26.38;50.86;98841.19;5015766;28;20388;-62
2021/06/20 05:20:57;;;;;;;17.52;3.67;;;;;;;27.19;48.87;98846.13;5015386;28;20084;-62
2021/06/20 05:23:22;;;;;;;12.75;3.28;;;;;;;26.02;51.24;98845.06;5015755;28;20080;-62
2021/06/20 05:25:48;;;;;;;13.23;3.28;;;;;;;26.80;49.23;98850.78;5015571;28;20045;-62
2021/06/20 05:28:14;;;;;;;10.10;3.40;;;;;;;27.26;47.90;98862.78;5015764;28;20029;-62
2021/06/20 05:30:39;;;;;;;9.55;3.47;;;;;;;26.57;50.65;98858.94;5015457;28;20041;-62
2021/06/20 05:33:05;;;;;;;11.77;3.22;;;;;;;27.53;48.31;98860.97;5014422;28;20464;-62
2021/06/20 05:35:30;;;;;;;12.43;3.58;;;;;;;27.78;47.03;98863.34;5015188;28;20034;-62
2021/06/20 05:37:56;;;;;;;13.07;3.47;;;;;;;26.67;50.49;98858.38;5015648;28;20120;-62
2021/06/20 05:40:21;;;;;;;11.65;3.60;;;;;;;27.36;49.12;98855.09;5013891;28;20041;-63
2021/06/20 05:42:47;;;;;;;11.02;3.97;;;;;;;27.69;48.81;98857.31;5015608;28;20057;-63
2021/06/20 05:45:12;;;;;;;17.17;3.70;;;;;;;27.34;49.16;98851.94;5015162;28;20041;-63
2021/06/20 05:47:38;;;;;;;14.07;4.00;;;;;;;27.55;48.67;98863.31;5014139;28;20036;-62
2021/06/20 05:50:04;;;;;;;9.07;4.00;;;;;;;26.81;51.39;98864.19;5015198;28;20022;-63
2021/06/20 05:52:29;;;;;;;11.02;3.75;;;;;;;27.70;49.17;98858.88;5015290;28;20369;-62
2021/06/20 05:54:55;;;;;;;14.13;4.00;;;;;;;27.60;49.22;98859.47;5015187;28;20084;-62
2021/06/20 05:57:21;;;;;;;10.05;3.75;;;;;;;26.70;51.53;98857.66;5014777;28;20496;-62
2021/06/20 05:59:47;;;;;;;12.95;3.97;;;;;;;26.68;51.17;98859.94;5015098;28;20054;-62
2021/06/20 06:02:12;;;;;;;17.05;4.25;;;;;;;26.76;51.91;98872.72;5014714;28;20404;-62
2021/06/20 06:04:38;;;;;;;12.70;4.28;;;;;;;26.81;51.00;98872.44;5015038;28;20037;-63
2021/06/20 06:07:04;;;;;;;11.60;4.45;;;;;;;27.06;50.15;98866.69;5014508;28;20052;-62
2021/06/20 06:09:29;;;;;;;11.73;4.43;;;;;;;28.30;46.93;98874.88;5015222;28;20036;-63
2021/06/20 06:11:56;;;;;;;12.98;4.20;;;;;;;28.58;46.11;98878.09;5014582;28;20556;-62
2021/06/20 06:14:21;;;;;;;8.77;3.88;;;;;;;28.04;47.26;98879.19;5014953;28;20033;-62
2021/06/20 06:16:47;;;;;;;14.63;4.85;;;;;;;28.22;47.57;98878.69;4996893;28;20053;-61
2021/06/20 06:19:12;;;;;;;16.23;4.15;;;;;;;28.18;47.03;98873.09;5015358;28;20026;-63
2021/06/20 06:21:38;;;;;;;13.40;3.95;;;;;;;28.82;45.72;98884.31;5014458;28;20065;-62
2021/06/20 06:24:04;;;;;;;15.73;4.07;;;;;;;26.41;51.99;98887.22;5014831;28;20041;-63
2021/06/20 06:26:30;;;;;;;11.27;4.30;;;;;;;26.74;50.69;98887.97;5014327;28;20443;-62
2021/06/20 06:28:55;;;;;;;12.85;3.60;;;;;;;28.15;47.70;98902.19;5014736;28;20148;-62
2021/06/20 06:31:21;;;;;;;9.80;4.00;;;;;;;27.03;48.70;98894.88;5014206;28;20373;-62
2021/06/20 06:33:46;;;;;;;11.25;3.83;;;;;;;26.61;50.77;98892.75;5014834;28;20018;-63
2021/06/20 06:36:11;;;;;;;15.55;4.13;;;;;;;27.87;47.63;98896.19;5014118;28;20042;-62
2021/06/20 06:38:37;;;;;;;10.13;4.45;;;;;;;27.37;49.14;98895.22;5014577;28;20484;-62
2021/06/20 06:41:02;;;;;;;15.50;4.28;;;;;;;27.68;46.98;98899.72;5014200;28;20037;-62
2021/06/20 06:43:28;;;;;;;11.98;4.25;;;;;;;28.69;45.38;98908.56;5013115;28;20427;-62
2021/06/20 06:45:53;;;;;;;9.27;4.10;;;;;;;28.99;44.02;98903.09;5013593;28;20496;-63
2021/06/20 06:48:19;;;;;;;10.27;3.90;;;;;;;29.13;43.53;98904.47;5014307;28;20021;-62
2021/06/20 06:50:44;;;;;;;13.30;4.53;;;;;;;30.68;40.34;98902.09;5008174;28;20038;-63
2021/06/20 06:53:10;;;;;;;9.73;3.97;;;;;;;30.71;40.14;98898.53;4994592;28;20456;-63
2021/06/20 06:55:35;;;;;;;13.57;4.88;;;;;;;29.87;41.24;98904.53;4998696;28;20065;-63
2021/06/20 06:58:01;;;;;;;10.65;4.00;;;;;;;30.03;40.75;98895.22;5014324;28;20076;-63
2021/06/20 07:00:27;;;;;;;15.18;4.22;;;;;;;27.31;46.44;98881.75;4996061;28;20515;-63
2021/06/20 07:02:53;;;;;;;10.48;4.57;;;;;;;28.26;44.78;98882.31;5014029;28;20108;-62
2021/06/20 07:05:19;;;;;;;9.40;3.95;;;;;;;29.42;41.84;98873.28;5013811;28;20211;-62
2021/06/20 07:07:44;;;;;;;11.82;3.80;;;;;;;30.42;38.92;98867.91;5013879;28;20017;-63
2021/06/20 07:10:10;;;;;;;10.80;3.70;;;;;;;28.60;43.10;98864.72;5013513;28;20076;-62
2021/06/20 07:12:35;;;;;;;9.23;4.07;;;;;;;28.45;44.23;98862.91;5013796;28;20014;-62
2021/06/20 07:15:04;;;;;;;13.80;3.97;;;;;;;30.16;39.62;98870.88;5012012;28;20420;-63
2021/06/20 07:17:30;;;;;;;10.40;4.18;;;;;;;31.05;37.38;98882.56;5013621;28;20025;-61
2021/06/20 07:19:55;;;;;;;10.07;3.92;;;;;;;29.35;41.92;98883.44;5013499;28;20025;-61
2021/06/20 07:22:21;;;;;;;10.77;3.92;;;;;;;30.76;38.49;98895.41;5011807;28;20042;-61
2021/06/20 07:24:46;;;;;;;13.68;3.92;;;;;;;30.81;38.93;98899.78;5012201;28;20487;-61
2021/06/20 07:27:12;;;;;;;16.63;3.80;;;;;;;31.87;36.36;98900.63;5012856;28;20045;-61
2021/06/20 07:29:38;;;;;;;9.95;3.70;;;;;;;32.48;34.80;98895.13;5013299;28;20456;-61
2021/06/20 07:32:04;;;;;;;10.20;3.60;;;;;;;31.08;37.03;98897.59;5011600;28;20038;-61
2021/06/20 07:34:29;;;;;;;12.85;3.92;;;;;;;31.96;35.63;98893.53;5013269;28;20104;-61
2021/06/20 07:36:55;;;;;;;12.40;3.90;;;;;;;31.32;36.31;98885.00;5012794;28;20038;-62
2021/06/20 07:39:20;;;;;;;9.65;3.58;;;;;;;31.96;35.62;98885.22;5013035;28;20021;-61
2021/06/20 07:41:46;;;;;;;12.75;4.07;;;;;;;31.68;35.74;98888.72;5012939;28;20041;-61
2021/06/20 07:44:12;;;;;;;14.80;3.60;;;;;;;32.26;34.09;98886.03;5013186;28;20419;-61
2021/06/20 07:46:37;;;;;;;8.82;3.60;;;;;;;32.54;34.21;98891.56;5012733;28;20049;-60
2021/06/20 07:49:03;;;;;;;9.45;3.80;;;;;;;30.80;36.47;98898.97;5013149;28;20026;-61
2021/06/20 07:51:28;;;;;;;11.18;4.30;;;;;;;32.01;34.00;98884.81;5012458;28;20061;-61
2021/06/20 07:53:54;;;;;;;11.68;3.65;;;;;;;31.81;36.18;98891.91;5012989;28;20026;-61
2021/06/20 07:56:20;;;;;;;12.63;3.75;;;;;;;30.78;36.87;98889.47;5011141;28;20034;-61
2021/06/20 07:58:45;;;;;;;10.57;3.58;;;;;;;30.18;38.83;98885.88;5012799;28;20112;-62
2021/06/20 08:01:11;;;;;;;15.77;4.07;;;;;;;28.59;41.38;98887.16;5010932;28;20104;-61
2021/06/20 08:03:36;;;;;;;11.05;4.45;;;;;;;28.01;42.77;98879.91;5012893;28;20029;-61
2021/06/20 08:06:02;;;;;;;10.65;4.22;;;;;;;29.74;40.83;98872.84;5012445;28;20042;-62
2021/06/20 08:08:27;;;;;;;11.43;3.70;;;;;;;30.80;37.98;98878.81;5012747;28;20056;-62
2021/06/20 08:10:53;;;;;;;15.10;4.13;;;;;;;31.99;35.04;98867.78;5012419;28;20037;-62
2021/06/20 08:13:18;;;;;;;8.70;3.35;;;;;;;32.29;35.05;98863.84;5012804;28;20464;-62
2021/06/20 08:15:44;;;;;;;9.10;4.28;;;;;;;31.96;34.92;98863.06;5012079;28;20030;-62
2021/06/20 08:18:09;;;;;;;10.20;4.18;;;;;;;31.75;35.26;98857.44;5011365;28;20024;-62
2021/06/20 08:20:35;;;;;;;12.18;3.92;;;;;;;30.50;36.69;98866.00;5012286;28;20444;-62
2021/06/20 08:23:01;;;;;;;10.13;3.85;;;;;;;29.58;38.22;98858.44;5012543;28;20033;-62
2021/06/20 08:25:27;;;;;;;10.27;3.80;;;;;;;29.28;38.46;98862.09;5012116;28;20041;-62
2021/06/20 08:27:52;;;;;;;9.35;3.92;;;;;;;28.79;39.41;98874.06;5012580;28;20026;-62
2021/06/20 08:30:18;;;;;;;12.18;3.95;;;;;;;29.44;39.63;98873.69;5012101;28;20022;-62
2021/06/20 08:32:44;;;;;;;8.43;4.00;;;;;;;28.96;39.17;98862.47;5012756;28;20026;-62
2021/06/20 08:35:10;;;;;;;12.57;4.30;;;;;;;28.97;39.38;98858.53;5011049;28;20030;-62
2021/06/20 08:37:36;;;;;;;15.15;4.38;;;;;;;28.37;40.53;98869.47;5012704;28;20030;-62
2021/06/20 08:40:03;;;;;;;12.02;4.82;;;;;;;26.66;44.80;98874.06;5010780;28;20030;-62
2021/06/20 08:42:28;;;;;;;12.05;4.15;;;;;;;27.21;44.30;98878.75;5012621;28;20361;-62
2021/06/20 08:44:54;;;;;;;17.40;4.47;;;;;;;27.71;43.30;98877.00;5012532;28;20037;-61
2021/06/20 08:47:19;;;;;;;11.98;4.50;;;;;;;27.95;43.12;98862.09;5008637;28;20030;-61
2021/06/20 08:49:45;;;;;;;12.25;4.18;;;;;;;29.08;39.58;98872.50;5016337;28;20026;-61
2021/06/20 08:52:11;;;;;;;10.88;4.38;;;;;;;28.60;41.31;98878.50;5015916;28;20045;-62
2021/06/20 08:54:37;;;;;;;10.35;4.43;;;;;;;28.00;42.47;98877.53;5016172;28;20026;-62
2021/06/20 08:57:03;;;;;;;8.98;4.20;;;;;;;27.45;43.27;98870.22;5015768;28;20049;-61
2021/06/20 08:59:29;;;;;;;12.27;4.75;;;;;;;26.92;44.29;98869.13;5015217;28;20496;-64
2021/06/20 09:01:56;;;;;;;9.65;4.50;;;;;;;28.24;42.69;98876.34;5016008;28;20049;-62
2021/06/20 09:04:27;;;;;;;13.45;4.93;;;;;;;27.16;44.08;98873.53;5015401;28;20089;-63
2021/06/20 09:06:52;;;;;;;9.68;4.28;;;;;;;27.83;43.76;98876.88;5014576;28;20469;-62
2021/06/20 09:09:28;;;;;;;11.32;4.65;;;;;;;26.76;45.22;98867.22;5016026;28;20033;-63
2021/06/20 09:12:04;;;;;;;11.55;4.25;;;;;;;26.46;46.89;98869.66;5015817;28;20132;-63
2021/06/20 09:14:30;;;;;;;9.23;4.45;;;;;;;26.88;46.97;98872.59;4999317;28;20084;-63
2021/06/20 09:16:55;;;;;;;13.75;4.90;;;;;;;25.86;46.90;98858.78;5014233;28;20034;-61
2021/06/20 09:19:31;;;;;;;12.20;4.40;;;;;;;25.13;48.79;98866.16;5016120;28;20029;-63
2021/06/20 09:21:57;;;;;;;11.52;4.90;;;;;;;25.24;48.64;98868.47;5014320;28;20041;-63
2021/06/20 09:24:23;;;;;;;16.27;5.10;;;;;;;25.43;48.00;98868.56;5015482;28;20034;-63
2021/06/20 09:26:53;;;;;;;9.18;4.35;;;;;;;25.63;47.07;98871.47;5015353;28;20049;-63
2021/06/20 09:29:27;;;;;;;12.80;4.88;;;;;;;25.11;48.60;98889.56;4998189;28;20026;-63
2021/06/20 09:31:53;;;;;;;13.02;5.18;;;;;;;25.49;48.27;98883.66;5015349;28;20065;-63
2021/06/20 09:34:19;;;;;;;11.75;5.35;;;;;;;24.85;51.01;98887.25;5015372;28;20037;-63
2021/06/20 09:36:45;;;;;;;9.60;5.07;;;;;;;25.03;50.21;98888.56;5014911;28;20038;-62
2021/06/20 09:39:37;;;;;;;13.40;5.20;;;;;;;24.73;50.24;98886.13;5015639;28;20109;-62
2021/06/20 09:42:08;;;;;;;9.50;4.78;;;;;;;24.41;49.89;98867.88;5012885;28;20046;-63
2021/06/20 09:44:41;;;;;;;8.50;4.82;;;;;;;24.90;48.90;98874.09;5015524;28;20045;-63
2021/06/20 09:47:08;;;;;;;7.40;4.82;;;;;;;25.07;48.85;98873.03;5014858;28;20053;-62
2021/06/20 09:49:33;;;;;;;9.77;4.95;;;;;;;24.50;50.09;98866.63;5015385;28;20438;-61
2021/06/20 09:51:59;;;;;;;10.27;4.82;;;;;;;24.75;49.11;98861.91;5014909;28;20042;-63
2021/06/20 09:54:34;;;;;;;12.95;5.00;;;;;;;24.83;49.03;98862.94;5015273;28;20397;-62
2021/06/20 09:57:00;;;;;;;11.00;4.85;;;;;;;25.10;49.92;98866.06;5014730;28;20128;-63
2021/06/20 09:59:29;;;;;;;8.57;5.20;;;;;;;25.02;49.67;98858.78;5014737;28;20057;-62
2021/06/20 10:02:05;;;;;;;9.43;5.00;;;;;;;24.67;50.85;98868.34;5014730;28;20499;-62
2021/06/20 10:04:30;;;;;;;13.30;7.93;;;;;;;24.45;52.08;98866.06;5015452;28;20271;-63
2021/06/20 10:06:55;;;;;;;15.05;5.20;;;;;;;24.16;51.79;98873.34;5013390;28;20395;-63
2021/06/20 10:09:21;;;;;;;9.63;4.72;;;;;;;24.92;51.91;98880.06;5014048;28;20026;-62
2021/06/20 10:11:47;;;;;;;9.25;5.25;;;;;;;25.31;49.84;98874.94;5013362;28;20034;-62
2021/06/20 10:14:13;;;;;;;9.77;5.20;;;;;;;25.04;49.70;98876.47;5014893;28;20415;-64
2021/06/20 10:16:38;;;;;;;8.85;4.80;;;;;;;25.89;48.11;98869.06;5013323;28;20046;-63
2021/06/20 10:19:12;;;;;;;10.85;4.50;;;;;;;25.06;48.77;98857.75;4997609;28;20380;-62
2021/06/20 10:21:39;;;;;;;11.68;4.97;;;;;;;25.64;47.25;98845.63;5013094;28;20470;-63
2021/06/20 10:24:19;;;;;;;12.50;5.45;;;;;;;26.06;46.83;98856.09;5014916;28;20044;-63
2021/06/20 10:26:51;;;;;;;10.00;4.45;;;;;;;25.93;46.93;98853.44;5014282;28;20041;-63
2021/06/20 10:29:21;;;;;;;11.85;4.63;;;;;;;26.07;45.01;98852.22;5014607;28;20041;-62
2021/06/20 10:31:47;;;;;;;13.82;5.03;;;;;;;26.16;45.24;98848.16;5014340;28;20083;-62
2021/06/20 10:34:21;;;;;;;10.95;4.72;;;;;;;25.66;46.63;98844.13;5014626;28;20032;-62
2021/06/20 10:36:49;;;;;;;16.13;4.50;;;;;;;24.97;47.36;98837.91;5014387;28;20121;-62
2021/06/20 10:39:15;;;;;;;13.70;5.10;;;;;;;25.02;47.79;98828.63;5013244;28;20029;-62
2021/06/20 10:41:40;;;;;;;9.98;4.50;;;;;;;24.65;48.20;98839.69;5013962;28;20034;-62
2021/06/20 10:44:06;;;;;;;8.55;4.20;;;;;;;24.98;47.11;98831.25;5013060;28;20026;-62
2021/06/20 10:46:31;;;;;;;9.25;4.07;;;;;;;24.52;47.21;98825.22;5013744;28;20515;-62
2021/06/20 10:48:57;;;;;;;12.18;4.38;;;;;;;24.90;47.43;98824.78;5012964;28;20132;-62
2021/06/20 10:51:23;;;;;;;14.57;4.32;;;;;;;26.13;43.56;98817.84;5013650;28;20042;-62
2021/06/20 10:53:49;;;;;;;7.30;4.15;;;;;;;27.35;42.32;98810.28;5010862;28;20036;-61
2021/06/20 10:56:26;;;;;;;12.05;4.18;;;;;;;27.06;42.81;98803.41;5013435;28;20048;-61
2021/06/20 10:58:52;;;;;;;11.57;4.32;;;;;;;26.39;43.65;98804.34;5012434;28;20029;-62
2021/06/20 11:01:19;;;;;;;10.48;4.10;;;;;;;26.36;42.82;98816.06;5013534;28;20036;-63
2021/06/20 11:04:04;;;;;;;10.38;4.18;;;;;;;26.62;43.57;98809.19;5012450;28;20116;-63
2021/06/20 11:06:30;;;;;;;9.40;4.13;;;;;;;25.95;44.94;98811.94;5012968;28;20092;-63
2021/06/20 11:08:57;;;;;;;12.43;4.35;;;;;;;26.63;43.52;98808.00;5013641;28;20029;-63
2021/06/20 11:11:24;;;;;;;8.98;4.10;;;;;;;26.40;43.20;98794.94;5012498;28;20102;-62
2021/06/20 11:13:55;;;;;;;9.65;4.40;;;;;;;26.57;41.99;98798.47;5013799;28;20100;-63
2021/06/20 11:16:28;;;;;;;7.55;4.00;;;;;;;26.81;42.67;98781.72;5013067;28;20038;-62
2021/06/20 11:19:21;;;;;;;11.98;4.28;;;;;;;26.75;41.28;98794.13;4996155;28;20036;-63
2021/06/20 11:21:57;;;;;;;8.88;4.47;;;;;;;27.05;42.27;98785.31;5013039;28;20067;-61
2021/06/20 11:24:24;;;;;;;9.63;3.90;;;;;;;25.73;44.35;98799.59;5013470;28;20480;-61
2021/06/20 11:26:54;;;;;;;10.38;4.70;;;;;;;25.63;45.02;98789.13;5013039;28;20049;-61